Aviation Digital Data Service (ADDS)

Output produced by METARs form (2258 UTC 23 May 2022)
found at http://www.aviationweather.gov/metar/data/
 
TAF TKPK 231700Z 2318/2418 08011KT 9999 SCT022
       
TAF TKPN 231700Z 2318/2418 09011KT 9999 SCT022